Time;durP1;ratioP1;P1;durP2;ratioP2;P2;SDS_P1;SDS_P2;PMS_P1;PMS_P2;Temp;Humidity;BMP_temperature;BMP_pressure;BME280_temperature;BME280_humidity;BME280_pressure;Samples;Min_cycle;Max_cycle;Signal;HPM_P1;HPM_P2
2022/03/31 00:00:42;;;;;;;11.32;7.72;;;9.90;99.90;;;;;;4141845;28;20113;-63
2022/03/31 00:02:42;;;;;;;9.85;6.75;;;9.90;99.90;;;;;;4142962;28;20076;-64
2022/03/31 00:04:43;;;;;;;12.57;7.15;;;9.80;99.90;;;;;;4144340;28;20490;-63
2022/03/31 00:06:44;;;;;;;11.38;7.38;;;9.90;99.90;;;;;;4143032;28;20034;-63
2022/03/31 00:08:44;;;;;;;12.75;7.05;;;9.90;99.90;;;;;;4142786;28;20184;-64
2022/03/31 00:10:47;;;;;;;10.43;7.10;;;9.80;99.90;;;;;;4143209;28;20042;-63
2022/03/31 00:12:48;;;;;;;12.23;7.63;;;9.80;99.90;;;;;;4142025;28;20152;-63
2022/03/31 00:14:48;;;;;;;14.73;7.60;;;9.80;99.90;;;;;;4142593;28;20038;-64
2022/03/31 00:16:49;;;;;;;12.93;8.43;;;9.80;99.90;;;;;;4144181;28;20030;-63
2022/03/31 00:18:50;;;;;;;11.80;7.82;;;9.80;99.90;;;;;;4144131;28;20037;-65
2022/03/31 00:20:50;;;;;;;12.55;7.55;;;9.80;99.90;;;;;;4143483;28;20497;-64
2022/03/31 00:22:51;;;;;;;13.88;8.02;;;9.80;99.90;;;;;;4143703;28;20382;-64
2022/03/31 00:24:52;;;;;;;14.10;8.75;;;9.70;99.90;;;;;;4143619;28;20049;-64
2022/03/31 00:26:52;;;;;;;11.20;7.65;;;9.60;99.90;;;;;;4143438;28;20061;-63
2022/03/31 00:28:53;;;;;;;12.77;8.50;;;9.60;99.90;;;;;;4142791;28;20034;-64
2022/03/31 00:30:53;;;;;;;11.57;8.02;;;9.60;99.90;;;;;;4143615;28;20064;-64
2022/03/31 00:32:54;;;;;;;13.98;8.30;;;9.70;99.90;;;;;;4143704;28;20038;-64
2022/03/31 00:34:55;;;;;;;15.32;8.82;;;9.50;99.90;;;;;;4143710;28;20092;-64
2022/03/31 00:36:55;;;;;;;14.90;9.20;;;9.50;99.90;;;;;;4142485;28;20405;-64
2022/03/31 00:41:16;;;;;;;13.77;8.98;;;9.40;99.90;;;;;;4143191;28;20026;-63
2022/03/31 00:43:17;;;;;;;12.57;8.35;;;9.30;99.90;;;;;;4140488;28;20042;-63
2022/03/31 00:45:26;;;;;;;17.13;9.48;;;9.40;99.90;;;;;;4142845;28;20030;-63
2022/03/31 00:47:27;;;;;;;15.15;9.02;;;9.40;99.90;;;;;;4144311;28;20033;-63
2022/03/31 00:49:29;;;;;;;13.23;8.38;;;9.40;99.90;;;;;;4142473;28;20050;-63
2022/03/31 00:51:29;;;;;;;12.43;8.77;;;9.30;99.90;;;;;;4142679;28;20504;-63
2022/03/31 00:53:30;;;;;;;12.30;8.63;;;9.30;99.90;;;;;;4141627;28;20041;-63
2022/03/31 00:55:31;;;;;;;15.35;9.60;;;9.30;99.90;;;;;;4143324;28;20753;-64
2022/03/31 00:57:33;;;;;;;17.10;9.65;;;9.20;99.90;;;;;;4143396;28;20038;-64
2022/03/31 00:59:34;;;;;;;13.23;9.10;;;8.90;99.90;;;;;;4144346;28;20109;-63
2022/03/31 01:01:39;;;;;;;13.75;8.80;;;8.90;99.90;;;;;;4143413;28;20030;-64
2022/03/31 01:03:40;;;;;;;14.55;9.23;;;8.80;99.90;;;;;;4146693;28;20046;-63
2022/03/31 01:05:41;;;;;;;11.90;8.45;;;8.90;99.90;;;;;;4143929;28;20073;-63
2022/03/31 01:07:42;;;;;;;15.35;9.07;;;8.90;99.90;;;;;;4143008;28;20092;-63
2022/03/31 01:09:42;;;;;;;16.48;9.73;;;9.00;99.90;;;;;;4145606;28;20061;-63
2022/03/31 01:11:45;;;;;;;15.35;10.23;;;9.00;99.90;;;;;;4145975;28;20049;-63
2022/03/31 01:13:46;;;;;;;;;;;9.00;99.90;;;;;;4147457;28;20481;-63
2022/03/31 01:15:46;;;;;;;15.70;10.20;;;9.00;99.90;;;;;;4144215;28;19913;-63
2022/03/31 01:17:48;;;;;;;16.48;9.82;;;9.10;99.90;;;;;;4146239;28;20485;-63
2022/03/31 01:19:49;;;;;;;16.45;9.70;;;8.90;99.90;;;;;;4146434;28;20030;-63
2022/03/31 01:21:50;;;;;;;15.90;9.77;;;8.90;99.90;;;;;;4145554;28;20080;-64
2022/03/31 01:23:54;;;;;;;16.98;9.77;;;9.00;99.90;;;;;;4145214;28;20504;-65
2022/03/31 01:25:55;;;;;;;16.83;10.00;;;9.00;99.90;;;;;;4144016;28;20030;-63
2022/03/31 01:27:57;;;;;;;14.98;9.95;;;8.90;99.90;;;;;;4144870;28;20040;-64
2022/03/31 01:29:57;;;;;;;15.68;9.38;;;8.90;99.90;;;;;;4145175;28;20026;-63
2022/03/31 01:31:58;;;;;;;15.82;9.93;;;9.00;99.90;;;;;;4143718;28;20112;-64
2022/03/31 01:33:59;;;;;;;13.93;10.02;;;8.80;99.90;;;;;;4145875;28;20041;-63
2022/03/31 01:36:01;;;;;;;16.38;9.98;;;8.80;99.90;;;;;;4145568;28;20062;-63
2022/03/31 01:38:01;;;;;;;16.85;9.70;;;8.70;99.90;;;;;;4143776;28;20129;-64
2022/03/31 01:40:03;;;;;;;13.70;9.38;;;8.60;99.90;;;;;;4145003;28;20500;-64
2022/03/31 01:42:04;;;;;;;17.60;10.75;;;8.70;99.90;;;;;;4145150;28;20030;-64
2022/03/31 01:44:04;;;;;;;17.23;9.88;;;8.60;99.90;;;;;;4146006;28;20080;-64
2022/03/31 01:46:08;;;;;;;18.67;10.25;;;8.50;99.90;;;;;;4144803;28;20045;-63
2022/03/31 01:48:09;;;;;;;15.75;9.45;;;8.40;99.90;;;;;;4143934;28;20116;-64
2022/03/31 01:50:09;;;;;;;15.68;9.93;;;8.30;99.90;;;;;;4144571;28;20460;-64
2022/03/31 01:52:10;;;;;;;16.08;10.07;;;8.30;99.90;;;;;;4145200;28;20037;-64
2022/03/31 01:57:07;;;;;;;15.10;9.43;;;8.40;99.90;;;;;;4144219;28;20026;-64
2022/03/31 01:59:09;;;;;;;15.30;9.85;;;8.30;99.90;;;;;;4145665;28;20088;-64
2022/03/31 02:01:09;;;;;;;13.38;8.88;;;8.50;99.90;;;;;;4145132;28;20038;-63
2022/03/31 02:03:10;;;;;;;14.10;9.02;;;8.50;99.90;;;;;;4143743;28;20455;-64
2022/03/31 02:05:11;;;;;;;13.02;8.90;;;8.60;99.90;;;;;;4145375;28;20117;-65
2022/03/31 02:07:12;;;;;;;13.60;8.50;;;8.70;99.90;;;;;;4145426;28;20049;-63
2022/03/31 02:09:12;;;;;;;14.10;8.27;;;8.70;99.90;;;;;;4145966;28;20084;-64
2022/03/31 02:11:13;;;;;;;12.82;8.80;;;8.80;99.90;;;;;;4143973;28;20424;-64
2022/03/31 02:13:14;;;;;;;14.73;8.75;;;8.90;99.90;;;;;;4143716;28;20073;-64
2022/03/31 02:15:15;;;;;;;13.82;9.02;;;8.90;99.90;;;;;;4144233;28;20026;-64
2022/03/31 02:17:17;;;;;;;15.35;9.70;;;9.00;99.90;;;;;;4144607;28;20030;-63
2022/03/31 02:19:18;;;;;;;14.02;8.43;;;9.00;99.90;;;;;;4143002;28;20034;-63
2022/03/31 02:21:18;;;;;;;18.58;9.65;;;9.10;99.90;;;;;;4127500;28;20121;-63
2022/03/31 02:23:19;;;;;;;16.05;9.38;;;9.10;99.90;;;;;;4145762;28;20133;-63
2022/03/31 02:25:20;;;;;;;13.13;9.18;;;9.10;99.90;;;;;;4143777;28;20041;-63
2022/03/31 02:27:20;;;;;;;14.10;9.05;;;9.20;99.90;;;;;;4144201;28;20029;-63
2022/03/31 02:29:21;;;;;;;12.10;8.85;;;9.20;99.90;;;;;;4144555;28;20077;-63
2022/03/31 02:31:22;;;;;;;13.60;9.85;;;9.20;99.90;;;;;;4145273;28;20092;-64
2022/03/31 02:33:22;;;;;;;14.60;9.65;;;9.30;99.90;;;;;;4144085;28;20435;-64
2022/03/31 02:35:23;;;;;;;16.42;10.35;;;9.30;99.90;;;;;;4145239;28;20044;-64
2022/03/31 02:37:24;;;;;;;17.40;10.63;;;9.30;99.90;;;;;;4145030;28;20079;-64
2022/03/31 02:39:28;;;;;;;17.08;10.75;;;9.30;99.90;;;;;;4145262;28;20083;-64
2022/03/31 02:41:29;;;;;;;17.45;10.95;;;9.30;99.90;;;;;;4144953;28;20057;-63
2022/03/31 02:43:29;;;;;;;16.65;9.98;;;9.40;99.90;;;;;;4145139;28;20104;-63
2022/03/31 02:45:30;;;;;;;19.10;11.02;;;9.40;99.90;;;;;;4142644;28;20037;-63
2022/03/31 02:47:32;;;;;;;18.50;11.32;;;9.40;99.90;;;;;;4145733;28;20030;-63
2022/03/31 02:49:32;;;;;;;19.15;9.95;;;9.30;99.90;;;;;;4142457;28;20041;-65
2022/03/31 02:51:33;;;;;;;17.05;10.98;;;9.30;99.90;;;;;;4143820;28;20034;-64
2022/03/31 02:55:53;;;;;;;17.00;10.40;;;9.30;99.90;;;;;;4144360;28;20030;-64
2022/03/31 02:58:02;;;;;;;20.30;11.25;;;9.20;99.90;;;;;;4143375;28;20107;-65
2022/03/31 03:00:05;;;;;;;19.83;11.20;;;9.30;99.90;;;;;;4143206;28;20565;-65
2022/03/31 03:02:06;;;;;;;20.58;12.52;;;9.20;99.90;;;;;;4143325;28;20450;-64
2022/03/31 03:04:08;;;;;;;20.60;11.27;;;9.20;99.90;;;;;;4145385;28;20034;-63
2022/03/31 03:06:09;;;;;;;18.85;10.90;;;9.20;99.90;;;;;;4141622;28;20034;-64
2022/03/31 03:08:10;;;;;;;17.33;11.10;;;9.10;99.90;;;;;;4159788;28;20043;-63
2022/03/31 03:10:11;;;;;;;17.63;11.15;;;9.10;99.90;;;;;;4142924;28;20061;-64
2022/03/31 03:12:12;;;;;;;16.38;10.88;;;9.10;99.90;;;;;;4143601;28;20516;-63
2022/03/31 03:14:13;;;;;;;15.90;9.98;;;9.10;99.90;;;;;;4143903;28;20045;-63
2022/03/31 03:16:14;;;;;;;19.52;12.98;;;9.10;99.90;;;;;;4141807;28;20026;-63
2022/03/31 03:18:18;;;;;;;19.50;11.95;;;9.10;99.90;;;;;;4145292;28;20049;-63
2022/03/31 03:20:19;;;;;;;20.42;11.85;;;9.10;99.90;;;;;;4141275;28;20044;-64
2022/03/31 03:22:20;;;;;;;19.00;12.30;;;9.00;99.90;;;;;;4143180;28;20117;-63
2022/03/31 03:24:22;;;;;;;17.52;12.05;;;8.90;99.90;;;;;;4144086;28;20046;-63
2022/03/31 03:26:23;;;;;;;18.08;11.15;;;9.00;99.90;;;;;;4139701;28;20082;-65
2022/03/31 03:28:23;;;;;;;19.13;12.30;;;8.90;99.90;;;;;;4143230;28;20493;-63
2022/03/31 03:30:24;;;;;;;17.13;11.68;;;8.90;99.90;;;;;;4140204;28;20030;-64
2022/03/31 03:32:24;;;;;;;18.77;11.90;;;8.90;99.90;;;;;;4145035;28;20096;-64
2022/03/31 03:34:25;;;;;;;24.42;12.85;;;8.80;99.90;;;;;;4144950;28;20459;-63
2022/03/31 03:36:27;;;;;;;22.13;12.60;;;8.90;99.90;;;;;;4144558;28;20046;-63
2022/03/31 03:38:27;;;;;;;18.23;11.65;;;8.80;99.90;;;;;;4142960;28;20041;-63
2022/03/31 03:40:29;;;;;;;20.08;11.98;;;8.80;99.90;;;;;;4143639;28;20456;-63
2022/03/31 03:42:30;;;;;;;20.53;13.33;;;8.80;99.90;;;;;;4142283;28;20034;-63
2022/03/31 03:44:31;;;;;;;22.08;12.23;;;8.80;99.90;;;;;;4144091;28;20280;-63
2022/03/31 03:46:31;;;;;;;18.50;11.95;;;8.80;99.90;;;;;;4144106;28;20120;-63
2022/03/31 03:48:32;;;;;;;18.92;12.18;;;8.90;99.90;;;;;;4143976;28;20177;-65
2022/03/31 03:50:36;;;;;;;20.95;12.45;;;8.90;99.90;;;;;;4142788;28;20042;-64
2022/03/31 03:52:37;;;;;;;17.95;11.70;;;8.90;99.90;;;;;;4143289;28;20042;-63
2022/03/31 03:54:37;;;;;;;19.33;13.00;;;8.90;99.90;;;;;;4143745;28;20390;-63
2022/03/31 03:56:38;;;;;;;21.83;13.93;;;8.80;99.90;;;;;;4142454;28;20129;-63
2022/03/31 03:58:39;;;;;;;20.17;13.98;;;8.70;99.90;;;;;;4142275;28;20038;-63
2022/03/31 04:00:40;;;;;;;23.40;14.05;;;8.70;99.90;;;;;;4143747;28;20117;-63
2022/03/31 04:02:41;;;;;;;21.20;12.90;;;8.70;99.90;;;;;;4141640;28;20120;-63
2022/03/31 04:04:42;;;;;;;20.33;12.77;;;8.70;99.90;;;;;;4141477;28;20066;-63
2022/03/31 04:06:42;;;;;;;19.70;12.48;;;8.70;99.90;;;;;;4144032;28;20041;-64
2022/03/31 04:08:43;;;;;;;23.42;14.02;;;8.70;99.90;;;;;;4143798;28;20045;-64
2022/03/31 04:10:44;;;;;;;25.23;13.75;;;8.70;99.90;;;;;;4157925;28;20033;-63
2022/03/31 04:12:44;;;;;;;24.75;14.63;;;8.80;99.90;;;;;;4142350;28;20056;-63
2022/03/31 04:14:45;;;;;;;19.35;13.68;;;8.80;99.90;;;;;;4144454;28;20413;-64
2022/03/31 04:16:46;;;;;;;20.30;13.07;;;8.80;99.90;;;;;;4142241;28;20080;-63
2022/03/31 04:18:47;;;;;;;24.23;13.30;;;8.80;99.90;;;;;;4142615;28;20499;-64
2022/03/31 04:20:47;;;;;;;19.73;13.40;;;8.80;99.90;;;;;;4143415;28;20034;-63
2022/03/31 04:22:48;;;;;;;24.55;13.77;;;8.80;99.90;;;;;;4142418;28;20113;-63
2022/03/31 04:24:49;;;;;;;25.15;15.45;;;8.70;99.90;;;;;;4143752;28;20050;-64
2022/03/31 04:26:49;;;;;;;25.10;14.85;;;8.70;99.90;;;;;;4140491;28;20107;-63
2022/03/31 04:28:50;;;;;;;25.65;15.00;;;8.70;99.90;;;;;;4139484;28;20510;-63
2022/03/31 04:30:50;;;;;;;22.13;13.77;;;8.70;99.90;;;;;;4140080;28;20375;-63
2022/03/31 04:32:51;;;;;;;24.90;15.35;;;8.60;99.90;;;;;;4139187;28;20100;-63
2022/03/31 04:34:52;;;;;;;23.67;14.48;;;8.50;99.90;;;;;;4142397;28;20034;-63
2022/03/31 04:36:52;;;;;;;24.42;15.02;;;8.50;99.90;;;;;;4139446;28;20052;-63
2022/03/31 04:38:53;;;;;;;23.33;14.93;;;8.50;99.90;;;;;;4143609;28;20769;-63
2022/03/31 04:40:54;;;;;;;23.35;13.57;;;8.50;99.90;;;;;;4143532;28;20048;-64
2022/03/31 04:42:54;;;;;;;20.75;14.38;;;8.50;99.90;;;;;;4143686;28;20120;-64
2022/03/31 04:44:55;;;;;;;22.67;13.52;;;8.50;99.90;;;;;;4148564;28;20038;-63
2022/03/31 04:46:56;;;;;;;22.25;14.35;;;8.50;99.90;;;;;;4141780;28;20038;-63
2022/03/31 04:48:57;;;;;;;26.15;15.75;;;8.50;99.90;;;;;;4144017;28;20121;-63
2022/03/31 04:50:58;;;;;;;26.15;15.55;;;8.50;99.90;;;;;;4144257;28;20053;-63
2022/03/31 04:52:59;;;;;;;24.40;15.77;;;8.50;99.90;;;;;;4143409;28;20033;-63
2022/03/31 04:54:59;;;;;;;25.70;14.98;;;8.50;99.90;;;;;;4143201;28;20038;-63
2022/03/31 04:57:00;;;;;;;20.63;13.82;;;8.50;99.90;;;;;;4141816;28;20041;-63
2022/03/31 04:59:01;;;;;;;22.05;14.10;;;8.50;99.90;;;;;;4142572;28;20046;-63
2022/03/31 05:01:03;;;;;;;27.13;15.73;;;8.60;99.90;;;;;;4143356;28;20061;-63
2022/03/31 05:03:04;;;;;;;25.42;14.73;;;8.60;99.90;;;;;;4145022;28;20045;-64
2022/03/31 05:05:05;;;;;;;21.80;14.25;;;8.60;99.90;;;;;;4146880;28;20026;-64
2022/03/31 05:07:06;;;;;;;24.00;15.45;;;8.60;99.90;;;;;;4144495;28;20045;-63
2022/03/31 05:09:06;;;;;;;25.38;16.30;;;8.60;99.90;;;;;;4145088;28;20037;-63
2022/03/31 05:11:07;;;;;;;27.40;16.52;;;8.50;99.90;;;;;;4145062;28;20026;-63
2022/03/31 05:13:07;;;;;;;25.40;15.43;;;8.50;99.90;;;;;;4145164;28;20408;-63
2022/03/31 05:15:08;;;;;;;23.80;15.65;;;8.50;99.90;;;;;;4144701;28;20041;-63
2022/03/31 05:17:10;;;;;;;24.35;15.82;;;8.60;99.90;;;;;;4145453;28;20041;-64
2022/03/31 05:19:11;;;;;;;28.15;16.30;;;8.60;99.90;;;;;;4147245;28;20060;-63
2022/03/31 05:21:12;;;;;;;26.23;15.80;;;8.50;99.90;;;;;;4151349;28;20392;-63
2022/03/31 05:23:13;;;;;;;23.95;15.60;;;8.50;99.90;;;;;;4141828;28;20038;-63
2022/03/31 05:25:15;;;;;;;23.90;16.02;;;8.50;99.90;;;;;;4145541;28;20140;-63
2022/03/31 05:27:15;;;;;;;25.42;16.08;;;8.50;99.90;;;;;;4145760;28;20042;-63
2022/03/31 05:29:16;;;;;;;26.85;16.90;;;8.50;99.90;;;;;;4152575;28;20042;-63
2022/03/31 05:31:17;;;;;;;27.02;16.58;;;8.60;99.90;;;;;;4142666;28;20065;-63
2022/03/31 05:33:17;;;;;;;24.60;16.33;;;8.60;99.90;;;;;;4148375;28;20033;-63
2022/03/31 05:35:18;;;;;;;29.23;17.02;;;8.60;99.90;;;;;;4145703;28;20045;-64
2022/03/31 05:37:19;;;;;;;27.23;17.42;;;8.50;99.90;;;;;;4145049;28;20113;-63
2022/03/31 05:39:19;;;;;;;27.23;16.75;;;8.60;99.90;;;;;;4145662;28;20026;-64
2022/03/31 05:41:20;;;;;;;28.65;16.48;;;8.60;99.90;;;;;;4145909;28;20029;-65
2022/03/31 05:43:24;;;;;;;29.77;17.95;;;8.60;99.90;;;;;;4145174;28;20036;-63
2022/03/31 05:45:25;;;;;;;25.67;16.13;;;8.60;99.90;;;;;;4142876;28;20080;-65
2022/03/31 05:47:26;;;;;;;28.85;17.40;;;8.60;99.90;;;;;;4145271;28;20104;-65
2022/03/31 05:49:27;;;;;;;27.63;17.67;;;8.60;99.90;;;;;;4147087;28;20033;-64
2022/03/31 05:51:28;;;;;;;26.40;17.42;;;8.60;99.90;;;;;;4147420;28;20421;-64
2022/03/31 05:53:28;;;;;;;26.70;17.27;;;8.50;99.90;;;;;;4141591;28;20370;-64
2022/03/31 05:55:30;;;;;;;24.65;16.35;;;8.50;99.90;;;;;;4141888;28;20456;-64
2022/03/31 05:57:31;;;;;;;26.60;16.60;;;8.50;99.90;;;;;;4142710;28;20042;-64
2022/03/31 05:59:31;;;;;;;27.45;16.98;;;8.60;99.90;;;;;;4142045;28;20099;-64
2022/03/31 06:01:32;;;;;;;27.95;16.30;;;8.60;99.90;;;;;;4141972;28;20044;-66
2022/03/31 06:03:33;;;;;;;31.95;18.10;;;8.60;99.90;;;;;;4141901;28;20045;-65
2022/03/31 06:05:33;;;;;;;29.75;18.15;;;8.50;99.90;;;;;;4140961;28;20038;-64
2022/03/31 06:07:34;;;;;;;24.30;15.85;;;8.50;99.90;;;;;;4140627;28;20578;-65
2022/03/31 06:09:35;;;;;;;27.73;18.38;;;8.50;99.90;;;;;;4141716;28;20041;-64
2022/03/31 06:11:35;;;;;;;24.80;16.63;;;8.50;99.90;;;;;;4142270;28;20468;-65
2022/03/31 06:13:36;;;;;;;27.77;16.05;;;8.50;99.90;;;;;;4141876;28;20096;-65
2022/03/31 06:15:37;;;;;;;24.27;15.73;;;8.50;99.90;;;;;;4141576;28;20038;-64
2022/03/31 06:17:42;;;;;;;29.85;18.77;;;8.50;99.90;;;;;;4141292;28;20022;-64
2022/03/31 06:19:43;;;;;;;27.35;17.65;;;8.50;99.90;;;;;;4142525;28;20050;-64
2022/03/31 06:21:44;;;;;;;25.20;16.65;;;8.50;99.90;;;;;;4141086;28;20038;-64
2022/03/31 06:23:44;;;;;;;30.40;17.88;;;8.50;99.90;;;;;;4141135;28;20034;-64
2022/03/31 06:25:45;;;;;;;28.13;17.88;;;8.50;99.90;;;;;;4140435;28;20512;-64
2022/03/31 06:27:47;;;;;;;23.73;15.68;;;8.50;99.90;;;;;;4141509;28;20034;-64
2022/03/31 06:29:49;;;;;;;28.00;17.15;;;8.50;99.90;;;;;;4141118;28;20060;-64
2022/03/31 06:31:50;;;;;;;27.95;16.63;;;8.40;99.90;;;;;;4138995;28;20045;-64
2022/03/31 06:33:51;;;;;;;28.60;16.85;;;8.40;99.90;;;;;;4142193;28;20489;-64
2022/03/31 06:35:52;;;;;;;25.27;16.58;;;8.40;99.90;;;;;;4141366;28;20041;-64
2022/03/31 06:37:52;;;;;;;26.83;16.42;;;8.40;99.90;;;;;;4141420;28;20041;-64
2022/03/31 06:39:53;;;;;;;23.35;15.00;;;8.40;99.90;;;;;;4140953;28;20038;-64
2022/03/31 06:41:53;;;;;;;26.85;16.60;;;8.40;99.90;;;;;;4140633;28;20045;-64
2022/03/31 06:43:54;;;;;;;24.35;15.88;;;8.40;99.90;;;;;;4142055;28;20045;-65
2022/03/31 06:45:55;;;;;;;24.58;15.98;;;8.40;99.90;;;;;;4136279;28;20527;-64
2022/03/31 06:47:57;;;;;;;26.23;16.40;;;8.50;99.90;;;;;;4139238;28;20037;-64
2022/03/31 06:49:57;;;;;;;30.38;17.60;;;8.50;99.90;;;;;;4139901;28;20049;-64
2022/03/31 06:51:58;;;;;;;29.45;17.55;;;8.50;99.90;;;;;;4136520;28;20038;-64
2022/03/31 06:53:59;;;;;;;26.65;16.20;;;8.50;99.90;;;;;;4123889;28;20049;-64
2022/03/31 06:56:00;;;;;;;25.33;16.65;;;8.40;99.90;;;;;;4140855;28;20041;-64
2022/03/31 06:58:00;;;;;;;26.95;16.70;;;8.30;99.90;;;;;;4141301;28;20125;-64
2022/03/31 07:00:02;;;;;;;25.10;15.95;;;8.10;99.90;;;;;;4141735;28;20045;-64
2022/03/31 07:02:03;;;;;;;25.27;16.10;;;8.10;99.90;;;;;;4144697;28;20498;-65
2022/03/31 07:04:06;;;;;;;25.48;16.60;;;8.10;99.90;;;;;;4142251;28;20055;-65
2022/03/31 07:06:08;;;;;;;25.63;16.05;;;8.10;99.90;;;;;;4140621;28;20068;-64
2022/03/31 07:08:08;;;;;;;23.50;14.93;;;8.10;99.90;;;;;;4140044;28;20061;-64
2022/03/31 07:10:09;;;;;;;23.83;16.15;;;8.10;99.90;;;;;;4141537;28;20038;-65
2022/03/31 07:12:11;;;;;;;29.45;18.13;;;8.10;99.90;;;;;;4140605;28;20038;-64
2022/03/31 07:14:11;;;;;;;28.13;16.75;;;8.10;99.90;;;;;;4140301;28;20046;-64
2022/03/31 07:16:12;;;;;;;25.65;16.52;;;8.10;99.90;;;;;;4140223;28;20048;-64
2022/03/31 07:18:13;;;;;;;24.92;16.63;;;8.20;99.90;;;;;;4140466;28;20032;-64
2022/03/31 07:20:13;;;;;;;23.77;15.25;;;8.20;99.90;;;;;;4140944;28;20096;-64
2022/03/31 07:22:14;;;;;;;25.55;15.45;;;8.20;99.90;;;;;;4139123;28;20113;-64
2022/03/31 07:24:14;;;;;;;25.92;16.15;;;8.30;99.90;;;;;;4138032;28;20061;-64
2022/03/31 07:26:15;;;;;;;26.17;16.83;;;8.30;99.90;;;;;;4139579;28;20498;-64
2022/03/31 07:28:16;;;;;;;26.73;17.48;;;8.30;99.90;;;;;;4140309;28;20029;-64
2022/03/31 07:30:19;;;;;;;33.55;18.23;;;8.30;99.90;;;;;;4139658;28;20033;-65
2022/03/31 07:32:19;;;;;;;29.45;17.60;;;8.30;99.90;;;;;;4140733;28;20038;-65
2022/03/31 07:34:20;;;;;;;27.90;18.23;;;8.30;99.90;;;;;;4140021;28;20065;-65
2022/03/31 07:36:20;;;;;;;28.00;17.15;;;8.30;99.90;;;;;;4140705;28;20366;-65
2022/03/31 07:38:21;;;;;;;25.65;17.70;;;8.40;99.90;;;;;;4142478;28;20022;-65
2022/03/31 07:40:23;;;;;;;27.48;17.48;;;8.40;99.90;;;;;;4140534;28;20040;-65
2022/03/31 07:42:24;;;;;;;29.40;18.05;;;8.40;99.90;;;;;;4140517;28;20500;-65
2022/03/31 07:44:25;;;;;;;29.50;19.45;;;8.50;99.90;;;;;;4141220;28;20038;-65
2022/03/31 07:46:29;;;;;;;28.08;17.05;;;8.50;99.90;;;;;;4140609;28;20078;-66
2022/03/31 07:48:30;;;;;;;27.83;18.23;;;8.50;99.90;;;;;;4139775;28;20468;-65
2022/03/31 07:50:33;;;;;;;28.52;17.95;;;8.50;99.90;;;;;;4122001;28;20221;-65
2022/03/31 07:52:34;;;;;;;;;;;8.60;99.90;;;;;;4140153;28;20128;-66
2022/03/31 07:54:35;;;;;;;27.80;18.23;;;8.50;99.90;;;;;;4143352;28;19920;-66
2022/03/31 07:56:36;;;;;;;30.80;20.13;;;8.50;99.90;;;;;;4140060;28;20048;-65
2022/03/31 07:58:37;;;;;;;31.85;18.15;;;8.50;99.90;;;;;;4141097;28;20042;-66
2022/03/31 08:00:37;;;;;;;29.55;18.55;;;8.60;99.90;;;;;;4139679;28;20083;-65
2022/03/31 08:02:40;;;;;;;27.98;18.05;;;8.60;99.90;;;;;;4141126;28;20379;-65
2022/03/31 08:04:41;;;;;;;27.80;17.80;;;8.60;99.90;;;;;;4140358;28;20053;-65
2022/03/31 08:06:42;;;;;;;30.95;18.92;;;8.70;99.90;;;;;;4139997;28;20033;-65
2022/03/31 08:08:43;;;;;;;31.35;19.20;;;8.60;99.90;;;;;;4140326;28;20030;-65
2022/03/31 08:10:44;;;;;;;33.35;21.05;;;8.70;99.90;;;;;;4140103;28;20041;-65
2022/03/31 08:12:45;;;;;;;29.88;19.60;;;8.70;99.90;;;;;;4145343;28;20038;-65
2022/03/31 08:14:46;;;;;;;32.80;20.05;;;8.70;99.90;;;;;;4148378;28;20125;-65
2022/03/31 08:16:48;;;;;;;40.97;23.63;;;8.70;99.90;;;;;;4146586;28;20065;-65
2022/03/31 08:18:50;;;;;;;39.53;23.93;;;8.80;99.90;;;;;;4146833;28;20026;-65
2022/03/31 08:20:50;;;;;;;34.33;21.97;;;8.80;99.90;;;;;;4145017;28;20037;-65
2022/03/31 08:22:51;;;;;;;34.50;20.15;;;8.80;99.90;;;;;;4145962;28;20394;-65
2022/03/31 08:24:52;;;;;;;37.22;22.67;;;8.80;99.90;;;;;;4145509;28;20045;-65
2022/03/31 08:26:53;;;;;;;40.53;23.20;;;8.80;99.90;;;;;;4144871;28;20232;-65
2022/03/31 08:28:54;;;;;;;37.95;24.05;;;8.80;99.90;;;;;;4146004;28;20061;-65
2022/03/31 08:30:54;;;;;;;39.92;23.60;;;8.80;99.90;;;;;;4145927;28;20022;-65
2022/03/31 08:32:56;;;;;;;41.57;25.50;;;8.80;99.90;;;;;;4145083;28;20068;-66
2022/03/31 08:34:57;;;;;;;42.70;25.67;;;8.80;99.90;;;;;;4146488;28;20077;-66
2022/03/31 08:36:57;;;;;;;45.33;27.17;;;8.80;99.90;;;;;;4144896;28;20517;-65
2022/03/31 08:38:58;;;;;;;44.20;26.73;;;8.90;99.90;;;;;;4145927;28;20034;-66
2022/03/31 08:41:00;;;;;;;44.88;26.85;;;8.90;99.90;;;;;;4145112;28;20045;-65
2022/03/31 08:43:01;;;;;;;50.00;29.97;;;8.90;99.90;;;;;;4145216;28;20130;-66
2022/03/31 08:45:03;;;;;;;43.08;25.10;;;8.90;99.90;;;;;;4145510;28;20047;-66
2022/03/31 08:47:05;;;;;;;43.08;26.25;;;8.80;99.90;;;;;;4145715;28;20053;-66
2022/03/31 08:49:07;;;;;;;43.08;26.63;;;8.80;99.90;;;;;;4145473;28;20401;-65
2022/03/31 08:51:08;;;;;;;41.65;24.65;;;8.80;99.90;;;;;;4145492;28;20053;-65
2022/03/31 08:53:09;;;;;;;41.55;24.77;;;8.80;99.90;;;;;;4145347;28;20071;-65
2022/03/31 08:55:11;;;;;;;42.97;26.38;;;8.80;99.90;;;;;;4145235;28;20574;-68
2022/03/31 08:57:12;;;;;;;39.83;25.88;;;8.80;99.90;;;;;;4159245;28;20520;-65
2022/03/31 08:59:12;;;;;;;44.13;26.92;;;8.90;99.90;;;;;;4144811;28;20038;-65
2022/03/31 09:01:14;;;;;;;46.92;28.58;;;8.90;99.90;;;;;;4145724;28;20064;-65
2022/03/31 09:03:16;;;;;;;42.75;25.75;;;8.90;99.90;;;;;;4145539;28;20394;-65
2022/03/31 09:05:17;;;;;;;47.17;28.55;;;9.00;99.90;;;;;;4145336;28;20168;-65
2022/03/31 09:07:18;;;;;;;42.58;25.35;;;9.00;99.90;;;;;;4146788;28;20081;-65
2022/03/31 09:09:18;;;;;;;40.22;24.98;;;9.00;99.90;;;;;;4145220;28;20041;-64
2022/03/31 09:11:46;;;;;;;50.70;28.45;;;9.00;99.90;;;;;;4147186;28;20030;-66
2022/03/31 09:13:54;;;;;;;36.22;23.55;;;8.90;99.90;;;;;;4143995;28;20050;-65
2022/03/31 09:16:03;;;;;;;34.72;22.52;;;9.00;99.90;;;;;;4144418;28;20046;-63
2022/03/31 09:18:04;;;;;;;46.80;26.88;;;9.00;99.90;;;;;;4145970;28;20048;-66
2022/03/31 09:20:05;;;;;;;41.35;24.45;;;8.90;99.90;;;;;;4145848;28;20160;-64
2022/03/31 09:22:06;;;;;;;38.70;24.13;;;8.90;99.90;;;;;;4145322;28;20061;-63
2022/03/31 09:24:15;;;;;;;45.72;26.95;;;8.90;99.90;;;;;;4140295;28;20050;-63
2022/03/31 09:26:17;;;;;;;49.58;28.23;;;8.90;99.90;;;;;;4142248;28;20089;-63
2022/03/31 09:28:21;;;;;;;44.47;27.45;;;8.80;99.90;;;;;;4143741;28;20038;-63
2022/03/31 09:30:25;;;;;;;40.10;24.95;;;8.70;99.90;;;;;;4142022;28;20026;-63
2022/03/31 09:32:26;;;;;;;46.55;28.02;;;8.70;99.90;;;;;;4141994;28;20065;-63
2022/03/31 09:34:50;;;;;;;42.40;24.80;;;8.70;99.90;;;;;;4144087;28;20978;-63
2022/03/31 09:36:52;;;;;;;47.75;28.60;;;8.70;99.90;;;;;;4141066;28;20041;-63
2022/03/31 09:39:05;;;;;;;45.05;27.42;;;8.70;99.90;;;;;;4143377;28;20080;-63
2022/03/31 09:41:23;;;;;;;49.45;29.70;;;8.60;99.90;;;;;;4140327;28;20037;-64
2022/03/31 09:43:23;;;;;;;49.05;28.73;;;8.60;99.90;;;;;;4137292;28;20050;-63
2022/03/31 09:45:24;;;;;;;48.25;29.40;;;8.50;99.90;;;;;;4148570;28;20797;-63
2022/03/31 09:47:26;;;;;;;46.92;26.52;;;8.40;99.90;;;;;;4143179;28;20045;-63
2022/03/31 09:49:28;;;;;;;47.95;28.67;;;8.40;99.90;;;;;;4143149;28;20045;-63
2022/03/31 09:51:28;;;;;;;48.93;27.30;;;8.40;99.90;;;;;;4142230;28;20469;-63
2022/03/31 09:53:32;;;;;;;44.50;26.50;;;8.40;99.90;;;;;;4141529;28;20073;-64
2022/03/31 09:55:35;;;;;;;43.40;26.08;;;8.50;99.90;;;;;;4140860;28;20132;-64
2022/03/31 09:57:38;;;;;;;44.47;28.25;;;8.50;99.90;;;;;;4141612;28;20053;-65
2022/03/31 09:59:40;;;;;;;59.50;30.65;;;8.50;99.90;;;;;;4141838;28;20061;-64
2022/03/31 10:01:41;;;;;;;54.33;32.00;;;8.60;99.90;;;;;;4137468;28;20056;-64
2022/03/31 10:03:42;;;;;;;49.58;29.25;;;8.50;99.90;;;;;;4142023;28;20396;-64
2022/03/31 10:05:45;;;;;;;46.65;27.85;;;8.50;99.90;;;;;;4141957;28;20485;-63
2022/03/31 10:07:48;;;;;;;47.70;28.20;;;8.50;99.90;;;;;;4142419;28;20034;-64
2022/03/31 10:09:49;;;;;;;44.42;26.88;;;8.60;99.90;;;;;;4142946;28;20037;-63
2022/03/31 10:12:03;;;;;;;45.83;27.90;;;8.60;99.90;;;;;;4141047;28;20510;-63
2022/03/31 10:14:29;;;;;;;48.33;28.42;;;8.60;99.90;;;;;;4141639;28;20301;-63
2022/03/31 10:16:48;;;;;;;49.50;29.75;;;8.60;99.90;;;;;;4122611;28;20057;-63
2022/03/31 10:18:49;;;;;;;43.85;27.10;;;8.70;99.90;;;;;;4142815;28;20033;-63
2022/03/31 10:20:59;;;;;;;44.55;26.83;;;8.70;99.90;;;;;;4141297;28;20478;-63
2022/03/31 10:25:22;;;;;;;46.45;27.13;;;8.70;99.90;;;;;;4140837;28;20516;-63
2022/03/31 10:27:37;;;;;;;47.70;28.45;;;8.60;99.90;;;;;;4141779;28;20046;-63
2022/03/31 10:29:40;;;;;;;41.45;24.80;;;8.50;99.90;;;;;;4141126;28;20141;-63
2022/03/31 10:31:43;;;;;;;33.25;20.02;;;8.50;99.90;;;;;;4140741;28;20050;-63
2022/03/31 10:33:51;;;;;;;32.70;19.05;;;8.40;99.90;;;;;;4142031;28;20069;-63
2022/03/31 10:36:00;;;;;;;26.45;17.65;;;8.30;99.90;;;;;;4142200;28;20037;-63
2022/03/31 10:38:16;;;;;;;25.05;16.70;;;8.30;99.90;;;;;;4141057;28;20030;-63